Time;durP1;ratioP1;P1;durP2;ratioP2;P2;SDS_P1;SDS_P2;PMS_P1;PMS_P2;Temp;Humidity;BMP_temperature;BMP_pressure;BME280_temperature;BME280_humidity;BME280_pressure;Samples;Min_cycle;Max_cycle;Signal;HPM_P1;HPM_P2
2021/05/30 00:02:17;;;;;;;15.75;10.00;;;15.20;99.90;;;;;;5095164;28;20170;-82
2021/05/30 00:04:43;;;;;;;11.27;10.10;;;15.10;99.90;;;;;;5106274;28;20166;-79
2021/05/30 00:07:09;;;;;;;11.05;9.90;;;14.90;99.90;;;;;;5107039;28;20170;-80
2021/05/30 00:09:38;;;;;;;16.27;10.20;;;14.80;99.90;;;;;;5107984;28;20217;-78
2021/05/30 00:12:04;;;;;;;12.38;10.38;;;14.80;99.90;;;;;;5076186;28;20173;-82
2021/05/30 00:14:30;;;;;;;14.77;9.75;;;14.80;99.90;;;;;;5093990;28;20750;-82
2021/05/30 00:16:55;;;;;;;13.05;10.25;;;14.80;99.90;;;;;;5093829;28;20166;-81
2021/05/30 00:19:21;;;;;;;14.18;10.00;;;14.80;99.90;;;;;;5093412;28;20637;-82
2021/05/30 00:21:47;;;;;;;12.23;10.75;;;14.70;99.90;;;;;;5076113;28;20177;-82
2021/05/30 00:24:12;;;;;;;15.00;11.10;;;14.60;99.90;;;;;;5094221;28;20621;-82
2021/05/30 00:26:38;;;;;;;14.10;11.10;;;14.70;99.90;;;;;;5093844;28;20231;-82
2021/05/30 00:29:04;;;;;;;12.13;10.40;;;14.80;99.90;;;;;;5093512;28;20196;-82
2021/05/30 00:31:30;;;;;;;14.77;10.57;;;14.80;99.90;;;;;;5093683;28;20173;-82
2021/05/30 00:33:56;;;;;;;13.05;11.65;;;14.90;99.90;;;;;;5093897;28;20162;-81
2021/05/30 00:36:21;;;;;;;12.73;10.48;;;14.80;99.90;;;;;;5093758;28;20555;-82
2021/05/30 00:38:47;;;;;;;15.65;10.65;;;14.60;99.90;;;;;;5093555;28;20185;-80
2021/05/30 00:41:13;;;;;;;12.85;11.00;;;14.60;99.90;;;;;;5093620;28;20177;-81
2021/05/30 00:43:49;;;;;;;18.77;11.18;;;14.60;99.90;;;;;;5093599;28;20206;-82
2021/05/30 00:46:15;;;;;;;12.55;10.85;;;14.50;99.90;;;;;;5093161;28;20173;-82
2021/05/30 00:48:41;;;;;;;17.15;12.45;;;14.30;99.90;;;;;;5075165;28;20197;-83
2021/05/30 00:51:07;;;;;;;19.27;12.68;;;14.30;99.90;;;;;;5093709;28;20501;-82
2021/05/30 00:53:34;;;;;;;17.02;12.05;;;14.30;99.90;;;;;;5093635;28;20154;-82
2021/05/30 00:56:03;;;;;;;19.65;12.60;;;14.20;99.90;;;;;;5075083;28;20547;-78
2021/05/30 00:58:29;;;;;;;17.92;11.43;;;14.10;99.90;;;;;;5092739;28;20173;-78
2021/05/30 01:00:54;;;;;;;18.45;10.73;;;14.10;99.90;;;;;;5093051;28;20256;-80
2021/05/30 01:03:20;;;;;;;14.95;11.80;;;14.30;99.90;;;;;;5093362;28;20648;-79
2021/05/30 01:05:47;;;;;;;15.50;11.75;;;14.30;99.90;;;;;;5093024;28;20252;-81
2021/05/30 01:08:15;;;;;;;16.52;11.40;;;14.20;99.90;;;;;;5092914;28;20656;-79
2021/05/30 01:10:46;;;;;;;21.55;12.68;;;14.40;99.90;;;;;;5092963;28;20197;-78
2021/05/30 01:13:13;;;;;;;18.90;12.13;;;14.50;99.90;;;;;;5092674;28;20165;-80
2021/05/30 01:15:40;;;;;;;20.98;13.10;;;14.30;99.90;;;;;;5092612;28;20173;-82
2021/05/30 01:18:06;;;;;;;21.10;11.60;;;14.40;99.90;;;;;;5092694;28;20669;-79
2021/05/30 01:20:32;;;;;;;15.95;12.23;;;14.20;99.90;;;;;;5092761;28;20181;-80
2021/05/30 01:23:06;;;;;;;16.48;12.00;;;14.30;99.90;;;;;;5092905;28;20170;-79
2021/05/30 01:25:32;;;;;;;19.10;13.05;;;14.00;99.90;;;;;;5092544;28;20172;-81
2021/05/30 01:27:57;;;;;;;17.65;12.90;;;14.00;99.90;;;;;;5092603;28;20158;-80
2021/05/30 01:30:23;;;;;;;16.35;12.02;;;14.00;99.90;;;;;;5074685;28;20209;-80
2021/05/30 01:32:50;;;;;;;17.73;11.82;;;14.10;99.90;;;;;;5074832;28;20174;-81
2021/05/30 01:35:16;;;;;;;21.98;13.15;;;14.00;99.90;;;;;;5092502;28;20647;-82
2021/05/30 01:37:42;;;;;;;15.90;11.43;;;13.70;99.90;;;;;;5092627;28;20642;-81
2021/05/30 01:40:09;;;;;;;15.30;12.68;;;13.70;99.90;;;;;;5092491;28;20292;-79
2021/05/30 01:42:35;;;;;;;19.70;13.70;;;13.80;99.90;;;;;;5092621;28;20184;-80
2021/05/30 01:45:01;;;;;;;20.77;13.85;;;13.80;99.90;;;;;;5092708;28;20178;-80
2021/05/30 01:47:27;;;;;;;20.60;13.98;;;13.80;99.90;;;;;;5092686;28;20214;-80
2021/05/30 01:49:53;;;;;;;21.05;13.05;;;13.60;99.90;;;;;;5092254;28;20205;-81
2021/05/30 01:52:18;;;;;;;20.52;13.20;;;13.70;99.90;;;;;;5092789;28;20162;-80
2021/05/30 01:54:48;;;;;;;16.55;12.77;;;13.60;99.90;;;;;;5092278;28;20177;-80
2021/05/30 01:57:15;;;;;;;17.52;12.52;;;13.70;99.90;;;;;;5092510;28;20168;-79
2021/05/30 01:59:43;;;;;;;15.98;13.38;;;13.70;99.90;;;;;;5092147;28;20189;-82
2021/05/30 02:02:10;;;;;;;16.85;13.15;;;13.70;99.90;;;;;;5092498;28;20158;-80
2021/05/30 02:04:42;;;;;;;17.60;13.40;;;13.80;99.90;;;;;;5074139;28;20170;-80
2021/05/30 02:07:08;;;;;;;18.13;13.63;;;13.80;99.90;;;;;;5092165;28;20245;-81
2021/05/30 02:09:37;;;;;;;17.48;13.27;;;13.60;99.90;;;;;;5092099;28;20642;-81
2021/05/30 02:12:04;;;;;;;21.30;12.68;;;13.60;99.90;;;;;;5092440;28;20215;-80
2021/05/30 02:14:30;;;;;;;20.77;14.02;;;13.70;99.90;;;;;;5091919;28;20169;-81
2021/05/30 02:16:56;;;;;;;20.85;13.60;;;13.70;99.90;;;;;;5074166;28;20158;-82
2021/05/30 02:19:21;;;;;;;19.25;13.50;;;13.50;99.90;;;;;;5092190;28;20211;-81
2021/05/30 02:21:50;;;;;;;17.63;13.88;;;13.30;99.90;;;;;;5074223;28;20705;-82
2021/05/30 02:24:19;;;;;;;23.25;13.60;;;13.50;99.90;;;;;;5092297;28;20174;-81
2021/05/30 02:26:45;;;;;;;18.60;13.80;;;13.60;99.90;;;;;;5092124;28;20177;-79
2021/05/30 02:29:38;;;;;;;19.60;14.32;;;13.50;99.90;;;;;;5091977;28;20206;-80
2021/05/30 02:32:06;;;;;;;19.33;14.88;;;13.40;99.90;;;;;;5094392;28;20547;-81
2021/05/30 02:34:32;;;;;;;17.67;13.65;;;13.20;99.90;;;;;;5096115;28;20170;-82
2021/05/30 02:36:58;;;;;;;21.10;13.77;;;13.20;99.90;;;;;;5096208;28;20162;-82
2021/05/30 02:39:24;;;;;;;21.95;14.73;;;13.30;99.90;;;;;;5096281;28;20646;-81
2021/05/30 02:41:50;;;;;;;26.35;15.15;;;13.30;99.90;;;;;;5095991;28;20162;-81
2021/05/30 02:44:16;;;;;;;22.58;15.00;;;13.10;99.90;;;;;;5094791;28;20245;-82
2021/05/30 02:46:41;;;;;;;20.70;14.18;;;13.10;99.90;;;;;;5075713;28;20531;-81
2021/05/30 02:49:07;;;;;;;20.10;14.40;;;13.10;99.90;;;;;;5075564;28;20535;-81
2021/05/30 02:51:33;;;;;;;17.23;13.60;;;13.30;99.90;;;;;;5094156;28;20522;-81
2021/05/30 02:53:59;;;;;;;18.00;14.13;;;13.20;99.90;;;;;;5093986;28;20162;-82
2021/05/30 02:56:25;;;;;;;21.30;14.18;;;13.10;99.90;;;;;;5076032;28;20169;-82
2021/05/30 02:58:51;;;;;;;23.52;15.30;;;13.00;99.90;;;;;;5076072;28;20186;-82
2021/05/30 03:01:16;;;;;;;23.20;14.77;;;13.10;99.90;;;;;;5095171;28;20207;-82
2021/05/30 03:03:42;;;;;;;20.60;14.57;;;13.00;99.90;;;;;;5095562;28;20162;-81
2021/05/30 03:06:07;;;;;;;18.90;14.35;;;13.00;99.90;;;;;;5095762;28;20245;-82
2021/05/30 03:08:33;;;;;;;21.35;15.48;;;12.90;99.90;;;;;;5077380;28;20301;-82
2021/05/30 03:10:59;;;;;;;21.25;14.05;;;13.10;99.90;;;;;;5095216;28;20260;-82
2021/05/30 03:13:24;;;;;;;28.45;16.52;;;13.10;99.90;;;;;;5095314;28;20158;-80
2021/05/30 03:15:50;;;;;;;20.30;14.48;;;13.00;99.90;;;;;;5077197;28;20178;-82
2021/05/30 03:18:15;;;;;;;21.20;15.30;;;13.00;99.90;;;;;;5094988;28;20165;-81
2021/05/30 03:20:41;;;;;;;23.65;15.13;;;13.10;99.90;;;;;;5095389;28;20178;-82
2021/05/30 03:23:08;;;;;;;19.98;15.18;;;13.10;99.90;;;;;;5095192;28;20644;-82
2021/05/30 03:25:34;;;;;;;22.50;14.77;;;12.90;99.90;;;;;;5095085;28;20169;-82
2021/05/30 03:28:00;;;;;;;21.67;14.73;;;12.70;99.90;;;;;;5095189;28;20158;-81
2021/05/30 03:30:26;;;;;;;24.98;14.65;;;12.60;99.90;;;;;;5094823;28;20216;-82
2021/05/30 03:32:51;;;;;;;23.92;13.88;;;12.50;99.90;;;;;;5095008;28;20177;-82
2021/05/30 03:35:17;;;;;;;23.38;14.40;;;12.70;99.90;;;;;;5095016;28;20509;-82
2021/05/30 03:37:43;;;;;;;17.40;14.10;;;12.70;99.90;;;;;;5094780;28;20162;-82
2021/05/30 03:40:23;;;;;;;22.83;15.90;;;12.70;99.90;;;;;;5094371;28;20193;-81
2021/05/30 03:42:51;;;;;;;21.77;15.40;;;12.70;99.90;;;;;;5093357;28;20633;-82
2021/05/30 03:45:16;;;;;;;24.05;15.30;;;12.80;99.90;;;;;;5094751;28;20193;-82
2021/05/30 03:47:42;;;;;;;21.02;14.40;;;12.80;99.90;;;;;;5094730;28;20235;-82
2021/05/30 03:50:08;;;;;;;22.23;15.70;;;12.90;99.90;;;;;;5094470;28;20237;-80
2021/05/30 03:52:34;;;;;;;19.58;15.02;;;12.80;99.90;;;;;;5094628;28;20162;-82
2021/05/30 03:54:59;;;;;;;24.27;15.45;;;13.00;99.90;;;;;;5094815;28;20170;-82
2021/05/30 03:57:25;;;;;;;21.52;14.55;;;13.00;99.90;;;;;;5076309;28;20168;-82
2021/05/30 03:59:50;;;;;;;22.13;16.50;;;13.10;99.90;;;;;;5094151;28;20592;-82
2021/05/30 04:02:16;;;;;;;21.73;14.45;;;12.70;99.90;;;;;;5095141;28;20181;-82
2021/05/30 04:04:42;;;;;;;20.92;16.15;;;12.80;99.90;;;;;;5094421;28;20170;-81
2021/05/30 04:07:07;;;;;;;17.25;14.02;;;12.80;99.90;;;;;;5094402;28;20622;-81
2021/05/30 04:09:33;;;;;;;29.85;14.80;;;12.90;99.90;;;;;;5094211;28;20209;-79
2021/05/30 04:11:59;;;;;;;20.90;13.82;;;12.90;99.90;;;;;;5076165;28;20165;-81
2021/05/30 04:14:25;;;;;;;22.08;14.90;;;13.00;99.90;;;;;;5094145;28;20206;-81
2021/05/30 04:16:50;;;;;;;19.73;14.90;;;13.00;99.90;;;;;;5075770;28;20555;-83
2021/05/30 04:19:16;;;;;;;19.98;14.38;;;13.10;99.90;;;;;;5094145;28;20210;-81
2021/05/30 04:21:41;;;;;;;22.25;14.30;;;13.10;99.90;;;;;;5093962;28;20252;-83
2021/05/30 04:24:07;;;;;;;22.50;14.10;;;13.10;99.90;;;;;;5094079;28;20287;-80
2021/05/30 04:26:33;;;;;;;15.95;13.77;;;12.90;99.90;;;;;;5094144;28;20616;-82
2021/05/30 04:28:59;;;;;;;19.45;14.82;;;12.60;99.90;;;;;;5093717;28;20197;-81
2021/05/30 04:31:25;;;;;;;19.58;14.13;;;12.80;99.90;;;;;;5075514;28;20216;-81
2021/05/30 04:33:51;;;;;;;18.83;13.80;;;12.80;99.90;;;;;;5093773;28;20170;-81
2021/05/30 04:36:17;;;;;;;14.57;12.45;;;12.80;99.90;;;;;;5093853;28;20176;-82
2021/05/30 04:38:43;;;;;;;21.83;14.07;;;12.70;99.90;;;;;;5093465;28;20186;-81
2021/05/30 04:41:08;;;;;;;18.20;14.00;;;12.70;99.90;;;;;;5093618;28;20197;-82
2021/05/30 04:43:34;;;;;;;17.25;13.23;;;12.70;99.90;;;;;;5093286;28;20169;-82
2021/05/30 04:46:01;;;;;;;17.50;13.13;;;12.90;99.90;;;;;;5075182;28;20180;-82
2021/05/30 04:48:27;;;;;;;26.38;13.68;;;13.00;99.90;;;;;;5093447;28;20162;-82
2021/05/30 04:51:05;;;;;;;22.60;12.70;;;13.10;99.90;;;;;;5075422;28;20214;-82
2021/05/30 04:53:41;;;;;;;16.17;12.75;;;13.20;99.90;;;;;;5093144;28;20161;-81
2021/05/30 04:56:08;;;;;;;21.95;13.90;;;13.30;99.90;;;;;;5092963;28;20252;-82
2021/05/30 04:58:34;;;;;;;21.20;13.77;;;13.30;99.90;;;;;;5093218;28;20243;-81
2021/05/30 05:01:02;;;;;;;14.88;12.07;;;13.50;99.90;;;;;;5093404;28;20172;-80
2021/05/30 05:03:28;;;;;;;21.20;13.82;;;13.50;99.90;;;;;;5093368;28;20170;-82
2021/05/30 05:05:54;;;;;;;15.30;13.30;;;13.60;99.90;;;;;;5092843;28;20170;-80
2021/05/30 05:08:21;;;;;;;14.77;13.27;;;13.70;99.90;;;;;;5092879;28;20185;-80
2021/05/30 05:10:48;;;;;;;17.25;14.23;;;13.70;99.90;;;;;;5092738;28;20202;-83
2021/05/30 05:13:14;;;;;;;16.70;13.48;;;13.80;99.90;;;;;;5093119;28;20219;-81
2021/05/30 05:15:41;;;;;;;19.73;14.25;;;14.00;99.90;;;;;;5092923;28;20158;-82
2021/05/30 05:18:11;;;;;;;15.93;13.70;;;13.70;99.90;;;;;;5093065;28;20165;-81
2021/05/30 05:20:37;;;;;;;20.77;14.13;;;13.70;99.90;;;;;;5092928;28;20188;-82
2021/05/30 05:23:02;;;;;;;17.08;13.70;;;13.90;99.90;;;;;;5074700;28;20212;-82
2021/05/30 05:25:28;;;;;;;16.58;14.45;;;14.00;99.90;;;;;;5093070;28;20224;-82
2021/05/30 05:27:54;;;;;;;17.67;13.88;;;13.80;99.90;;;;;;5093005;28;20197;-82
2021/05/30 05:30:19;;;;;;;15.77;14.07;;;14.10;99.90;;;;;;5092399;28;20210;-82
2021/05/30 05:32:45;;;;;;;19.65;14.93;;;14.40;99.90;;;;;;5093251;28;20219;-81
2021/05/30 05:35:11;;;;;;;23.88;14.40;;;14.10;99.90;;;;;;5092979;28;20249;-82
2021/05/30 05:37:36;;;;;;;19.58;15.93;;;14.40;99.90;;;;;;5092740;28;20166;-82
2021/05/30 05:40:02;;;;;;;20.60;15.60;;;14.60;99.90;;;;;;5092549;28;20254;-82
2021/05/30 05:42:28;;;;;;;18.00;14.48;;;14.40;99.90;;;;;;5092780;28;20200;-82
2021/05/30 05:44:54;;;;;;;22.02;15.73;;;14.30;99.90;;;;;;5092591;28;20201;-82
2021/05/30 05:47:19;;;;;;;25.73;15.95;;;14.00;99.90;;;;;;5092883;28;20523;-80
2021/05/30 05:49:45;;;;;;;20.55;14.93;;;13.80;99.90;;;;;;5092645;28;20696;-82
2021/05/30 05:52:10;;;;;;;20.40;14.85;;;13.90;99.90;;;;;;5092519;28;20173;-79
2021/05/30 05:54:36;;;;;;;20.38;15.32;;;13.90;99.90;;;;;;5092471;28;20188;-82
2021/05/30 05:57:02;;;;;;;23.70;15.75;;;13.80;99.90;;;;;;5092752;28;20621;-81
2021/05/30 05:59:27;;;;;;;19.48;14.88;;;13.60;99.90;;;;;;5092463;28;20215;-79
2021/05/30 06:01:53;;;;;;;18.45;15.30;;;13.90;99.90;;;;;;5092860;28;20573;-82
2021/05/30 06:04:19;;;;;;;24.67;16.67;;;14.20;99.90;;;;;;5092782;28;20217;-81
2021/05/30 06:06:44;;;;;;;19.70;15.65;;;14.30;99.90;;;;;;5096359;28;20160;-81
2021/05/30 06:09:10;;;;;;;18.60;14.57;;;14.40;99.90;;;;;;5096263;28;20238;-82
2021/05/30 06:11:36;;;;;;;17.15;14.60;;;14.60;99.90;;;;;;5096706;28;20248;-81
2021/05/30 06:14:02;;;;;;;19.40;14.73;;;14.40;99.90;;;;;;5096316;28;20169;-80
2021/05/30 06:16:28;;;;;;;22.95;15.93;;;14.60;99.90;;;;;;5096388;28;20162;-82
2021/05/30 06:18:55;;;;;;;22.00;15.75;;;14.40;99.90;;;;;;5096201;28;20193;-81
2021/05/30 06:21:20;;;;;;;17.75;15.38;;;14.50;99.90;;;;;;5096196;28;20161;-81
2021/05/30 06:23:46;;;;;;;19.83;14.57;;;14.50;99.90;;;;;;5096377;28;20166;-82
2021/05/30 06:26:12;;;;;;;19.30;15.55;;;14.60;99.90;;;;;;5095930;28;20166;-81
2021/05/30 06:28:37;;;;;;;21.95;16.17;;;14.50;99.90;;;;;;5096124;28;20213;-80
2021/05/30 06:31:03;;;;;;;21.52;15.40;;;14.40;99.90;;;;;;5096066;28;20263;-80
2021/05/30 06:33:28;;;;;;;16.92;14.30;;;14.50;99.90;;;;;;5078122;28;20549;-82
2021/05/30 06:35:54;;;;;;;17.80;14.50;;;14.40;99.90;;;;;;5097669;28;20178;-81
2021/05/30 06:38:20;;;;;;;19.90;15.18;;;14.70;99.90;;;;;;5108687;28;20223;-82
2021/05/30 06:40:45;;;;;;;20.83;14.18;;;14.80;99.90;;;;;;5108990;28;20660;-81
2021/05/30 06:43:12;;;;;;;16.63;14.38;;;15.00;99.90;;;;;;5085426;28;20166;-79
2021/05/30 06:45:38;;;;;;;15.95;14.32;;;15.00;99.90;;;;;;5096997;28;20173;-79
2021/05/30 06:48:04;;;;;;;17.27;14.98;;;14.90;99.90;;;;;;5077624;28;20177;-78
2021/05/30 06:50:31;;;;;;;15.85;13.57;;;15.00;99.90;;;;;;5095794;28;20245;-80
2021/05/30 06:52:57;;;;;;;20.73;14.32;;;15.20;99.90;;;;;;5096715;28;20165;-79
2021/05/30 06:55:23;;;;;;;15.20;12.45;;;15.50;99.90;;;;;;5095780;28;20184;-79
2021/05/30 06:57:49;;;;;;;15.52;12.27;;;15.80;99.90;;;;;;5076980;28;20528;-79
2021/05/30 07:00:16;;;;;;;18.38;13.15;;;16.50;99.90;;;;;;5095466;28;20235;-79
2021/05/30 07:02:42;;;;;;;14.02;12.52;;;17.20;99.90;;;;;;5095550;28;20184;-79
2021/05/30 07:05:08;;;;;;;12.18;10.68;;;18.10;99.90;;;;;;5095389;28;20202;-78
2021/05/30 07:07:34;;;;;;;15.02;10.68;;;19.10;99.90;;;;;;5095010;28;20215;-78
2021/05/30 07:10:00;;;;;;;11.63;10.48;;;19.50;99.90;;;;;;5095164;28;20210;-79
2021/05/30 07:12:25;;;;;;;12.10;10.88;;;20.60;99.90;;;;;;5095333;28;20162;-78
2021/05/30 07:14:51;;;;;;;10.93;10.02;;;20.90;99.90;;;;;;5095165;28;20174;-78
2021/05/30 07:17:17;;;;;;;12.38;11.25;;;21.20;99.90;;;;;;5094886;28;20244;-77
2021/05/30 07:19:46;;;;;;;12.10;10.95;;;21.40;99.90;;;;;;5094972;28;20194;-79
2021/05/30 07:22:12;;;;;;;12.02;10.95;;;22.00;99.90;;;;;;5095072;28;20170;-77
2021/05/30 07:24:38;;;;;;;11.32;10.32;;;22.30;99.90;;;;;;5076827;28;20169;-77
2021/05/30 07:27:04;;;;;;;12.77;11.48;;;22.10;99.90;;;;;;5094533;28;20215;-78
2021/05/30 07:29:30;;;;;;;12.57;11.43;;;21.40;99.90;;;;;;5094829;28;20220;-77
2021/05/30 07:31:55;;;;;;;14.20;11.57;;;21.20;99.90;;;;;;5094755;28;20158;-79
2021/05/30 07:34:21;;;;;;;12.27;11.07;;;21.50;99.90;;;;;;5094579;28;20705;-76
2021/05/30 07:36:46;;;;;;;11.38;10.45;;;22.10;99.90;;;;;;5094223;28;20162;-76
2021/05/30 07:39:12;;;;;;;11.93;10.45;;;21.80;99.90;;;;;;5094207;28;20197;-76
2021/05/30 07:41:38;;;;;;;12.93;11.57;;;21.80;99.90;;;;;;5094962;28;20545;-78
2021/05/30 07:44:04;;;;;;;12.60;10.95;;;22.00;99.90;;;;;;5094522;28;20161;-77
2021/05/30 07:46:29;;;;;;;12.63;11.43;;;22.00;99.90;;;;;;5076291;28;20261;-78
2021/05/30 07:48:55;;;;;;;12.35;10.55;;;22.00;99.90;;;;;;5094181;28;20674;-77
2021/05/30 07:51:21;;;;;;;12.45;11.15;;;21.60;99.90;;;;;;5094568;28;20677;-79
2021/05/30 07:53:46;;;;;;;12.93;11.02;;;21.10;99.90;;;;;;5094169;28;20168;-78
2021/05/30 07:56:12;;;;;;;12.57;11.48;;;21.10;99.90;;;;;;5093953;28;20507;-78
2021/05/30 07:58:38;;;;;;;15.27;13.10;;;20.80;99.90;;;;;;5094781;28;20212;-83
2021/05/30 08:01:04;;;;;;;15.98;12.98;;;20.40;99.90;;;;;;5094871;28;20193;-85
2021/05/30 08:03:30;;;;;;;14.30;12.75;;;19.90;99.90;;;;;;5094884;28;20565;-86
2021/05/30 08:05:55;;;;;;;13.57;12.05;;;19.50;99.90;;;;;;5095084;28;20173;-83
2021/05/30 08:08:22;;;;;;;15.93;12.73;;;19.10;99.90;;;;;;5094387;28;20193;-84
2021/05/30 08:10:48;;;;;;;12.93;11.27;;;18.90;99.90;;;;;;5094537;28;20205;-85
2021/05/30 08:13:14;;;;;;;13.55;12.25;;;19.00;99.90;;;;;;5076602;28;20651;-85
2021/05/30 08:15:40;;;;;;;12.40;11.18;;;18.50;99.90;;;;;;5095064;28;20229;-85
2021/05/30 08:18:06;;;;;;;18.05;12.45;;;18.50;99.90;;;;;;5075983;28;20256;-82
2021/05/30 08:20:31;;;;;;;14.13;12.32;;;18.70;99.90;;;;;;5094324;28;20189;-84
2021/05/30 08:22:57;;;;;;;13.88;12.32;;;18.70;99.90;;;;;;5076275;28;20169;-84
2021/05/30 08:25:23;;;;;;;12.40;11.13;;;18.60;99.90;;;;;;5094428;28;20172;-86
2021/05/30 08:27:50;;;;;;;11.77;10.52;;;18.70;99.90;;;;;;5093772;28;20161;-85
2021/05/30 08:30:17;;;;;;;11.90;10.13;;;18.70;99.90;;;;;;5075911;28;20252;-83
2021/05/30 08:32:43;;;;;;;12.55;11.25;;;18.70;99.90;;;;;;5075563;28;20174;-83
2021/05/30 08:35:09;;;;;;;11.85;10.65;;;18.90;99.90;;;;;;5075576;28;20174;-81
2021/05/30 08:37:36;;;;;;;11.88;10.75;;;18.80;99.90;;;;;;5093730;28;20187;-80
2021/05/30 08:40:02;;;;;;;11.85;10.77;;;18.70;99.90;;;;;;5075275;28;20643;-81
2021/05/30 08:42:28;;;;;;;10.50;9.45;;;18.90;99.90;;;;;;5093943;28;20154;-81
2021/05/30 08:44:56;;;;;;;13.50;9.95;;;19.20;99.90;;;;;;5089183;28;20237;-81
2021/05/30 08:47:22;;;;;;;11.02;9.27;;;19.40;99.90;;;;;;5110504;28;20237;-79
2021/05/30 08:49:55;;;;;;;10.13;9.13;;;19.60;99.90;;;;;;5111931;28;20309;-80
2021/05/30 08:52:21;;;;;;;10.52;9.60;;;19.40;99.90;;;;;;5109823;28;20234;-81
2021/05/30 08:54:49;;;;;;;14.55;10.15;;;19.30;99.90;;;;;;5089370;28;20161;-79
2021/05/30 08:57:15;;;;;;;17.42;10.25;;;19.10;99.90;;;;;;5098833;28;20196;-81
2021/05/30 08:59:53;;;;;;;11.52;10.38;;;19.00;99.90;;;;;;5082024;28;20185;-79
2021/05/30 09:02:19;;;;;;;9.57;8.73;;;19.10;99.90;;;;;;5101392;28;20256;-81
2021/05/30 09:04:55;;;;;;;9.63;8.68;;;19.10;99.90;;;;;;5100151;28;20165;-84
2021/05/30 09:07:43;;;;;;;9.00;8.18;;;19.00;99.90;;;;;;5083738;28;20215;-81
2021/05/30 09:10:14;;;;;;;9.68;8.40;;;19.10;99.90;;;;;;5080530;28;20584;-82
2021/05/30 09:12:41;;;;;;;8.95;8.05;;;19.00;99.90;;;;;;5095211;28;20188;-83
2021/05/30 09:18:16;;;;;;;10.40;8.45;;;19.40;99.90;;;;;;5096112;28;20230;-82
2021/05/30 09:20:59;;;;;;;10.20;9.25;;;19.50;99.90;;;;;;5096228;28;20166;-81
2021/05/30 09:23:29;;;;;;;10.88;8.35;;;19.40;99.90;;;;;;5077495;28;20177;-88
2021/05/30 09:26:20;;;;;;;8.98;8.18;;;19.50;99.90;;;;;;5095393;28;20228;-83
2021/05/30 09:29:09;;;;;;;10.10;9.18;;;19.60;99.90;;;;;;5095406;28;20533;-81
2021/05/30 09:31:52;;;;;;;11.90;9.80;;;19.70;99.90;;;;;;5095741;28;20656;-81
2021/05/30 09:34:30;;;;;;;7.00;6.40;;;19.90;99.90;;;;;;5077263;28;20170;-91
2021/05/30 09:36:57;;;;;;;7.05;5.13;;;19.90;99.90;;;;;;5095576;28;20645;-81
2021/05/30 09:39:43;;;;;;;14.38;6.35;;;19.90;99.90;;;;;;5093768;28;20649;-81
2021/05/30 09:42:25;;;;;;;9.43;7.40;;;20.10;99.90;;;;;;5077434;28;20629;-81
2021/05/30 09:45:01;;;;;;;6.78;6.18;;;20.10;99.90;;;;;;5078133;28;20530;-84
2021/05/30 09:47:34;;;;;;;8.68;6.68;;;20.00;99.90;;;;;;5095546;28;20624;-83
2021/05/30 09:50:00;;;;;;;8.38;6.50;;;20.20;99.90;;;;;;5094646;28;20231;-84
2021/05/30 09:52:43;;;;;;;8.75;7.93;;;20.30;99.90;;;;;;5092908;28;20618;-86
2021/05/30 09:55:15;;;;;;;9.00;8.15;;;20.30;99.90;;;;;;5093785;28;20180;-82
2021/05/30 09:57:41;;;;;;;7.15;5.97;;;20.30;99.90;;;;;;5094034;28;20162;-84
2021/05/30 10:00:21;;;;;;;5.82;5.35;;;20.20;99.90;;;;;;5094794;28;20189;-83
2021/05/30 10:02:47;;;;;;;7.78;4.95;;;20.20;99.90;;;;;;5091361;22;20775;-84
2021/05/30 10:05:13;;;;;;;5.82;5.30;;;20.20;99.90;;;;;;5074467;28;20162;-86
2021/05/30 10:07:39;;;;;;;6.70;5.60;;;20.20;99.90;;;;;;5092717;28;20161;-82
2021/05/30 10:10:06;;;;;;;9.85;8.13;;;20.10;99.90;;;;;;5074249;28;20204;-82
2021/05/30 10:12:33;;;;;;;7.28;6.68;;;20.00;99.90;;;;;;5073983;28;20250;-82
2021/05/30 10:14:59;;;;;;;8.75;5.93;;;20.10;99.90;;;;;;5092422;28;20617;-81
2021/05/30 10:17:25;;;;;;;6.55;5.50;;;20.10;99.90;;;;;;5076023;28;20231;-84
2021/05/30 10:19:52;;;;;;;6.03;5.53;;;20.30;99.90;;;;;;5075423;28;20638;-85
2021/05/30 10:22:18;;;;;;;7.15;5.10;;;20.30;99.90;;;;;;5074703;28;20177;-82
2021/05/30 10:24:45;;;;;;;6.95;5.30;;;20.00;99.90;;;;;;5075601;28;20226;-83
2021/05/30 10:27:20;;;;;;;6.72;6.13;;;20.10;99.90;;;;;;5077429;28;20197;-86
2021/05/30 10:30:08;;;;;;;6.28;5.68;;;20.20;99.90;;;;;;5076039;28;20249;-88
2021/05/30 10:32:35;;;;;;;6.05;5.47;;;20.10;99.90;;;;;;5094487;28;20330;-90
2021/05/30 10:35:22;;;;;;;5.78;5.35;;;20.30;99.90;;;;;;5078288;28;20166;-90
2021/05/30 10:37:49;;;;;;;6.35;5.72;;;20.50;99.90;;;;;;5077576;28;20176;-82
2021/05/30 10:40:20;;;;;;;6.70;6.10;;;20.40;99.90;;;;;;5073275;28;20290;-89
2021/05/30 10:43:09;;;;;;;5.88;5.38;;;20.50;99.90;;;;;;5070265;28;20196;-89
2021/05/30 10:45:44;;;;;;;6.22;5.53;;;20.50;99.90;;;;;;5045870;28;20232;-86
2021/05/30 10:48:11;;;;;;;8.40;5.63;;;20.40;99.90;;;;;;5054727;28;20170;-82
2021/05/30 10:50:39;;;;;;;5.50;5.00;;;20.40;99.90;;;;;;5053881;28;20269;-83
2021/05/30 10:53:29;;;;;;;6.38;5.85;;;20.60;99.90;;;;;;5057907;28;20290;-82
2021/05/30 10:56:12;;;;;;;7.47;6.72;;;20.70;99.90;;;;;;5057480;28;20170;-83
2021/05/30 10:58:38;;;;;;;10.25;6.95;;;20.50;99.90;;;;;;5056705;28;20198;-82
2021/05/30 11:01:04;;;;;;;8.32;7.57;;;20.40;99.90;;;;;;5075824;28;20708;-83
2021/05/30 11:03:29;;;;;;;4.25;3.85;;;20.80;99.90;;;;;;5061118;28;20186;-87
2021/05/30 11:05:57;;;;;;;3.65;3.35;;;21.00;99.90;;;;;;5077506;28;20174;-88
2021/05/30 11:08:33;;;;;;;5.88;3.47;;;20.90;99.90;;;;;;5058133;28;20162;-82
2021/05/30 11:11:24;;;;;;;3.60;3.30;;;20.90;99.90;;;;;;5076006;28;20247;-86
2021/05/30 11:13:58;;;;;;;5.00;4.35;;;21.00;99.90;;;;;;5057604;28;20512;-83
2021/05/30 11:16:25;;;;;;;4.75;4.43;;;20.70;99.90;;;;;;5058710;28;20723;-84
2021/05/30 11:19:24;;;;;;;4.85;3.78;;;20.90;99.90;;;;;;5058065;28;20196;-87
2021/05/30 11:21:50;;;;;;;7.90;3.30;;;21.00;99.90;;;;;;5048957;28;20193;-81
2021/05/30 11:24:19;;;;;;;8.77;3.85;;;21.20;99.90;;;;;;5058133;28;20158;-85
2021/05/30 11:27:14;;;;;;;8.45;3.67;;;21.30;99.90;;;;;;5057916;28;20254;-86
2021/05/30 11:29:41;;;;;;;3.95;3.08;;;21.20;99.90;;;;;;5044344;28;20207;-88
2021/05/30 11:32:07;;;;;;;4.35;3.95;;;21.00;99.90;;;;;;5057437;28;20220;-86
2021/05/30 11:34:34;;;;;;;5.10;3.83;;;20.90;99.90;;;;;;5057636;28;20170;-86
2021/05/30 11:37:11;;;;;;;5.45;3.92;;;20.80;99.90;;;;;;5057377;28;20173;-87
2021/05/30 11:39:38;;;;;;;3.25;2.75;;;20.90;99.90;;;;;;5075526;28;20183;-84
2021/05/30 11:42:04;;;;;;;3.42;2.90;;;21.20;99.90;;;;;;5057455;28;20167;-87
2021/05/30 11:44:31;;;;;;;3.28;2.78;;;21.30;99.90;;;;;;5057876;28;20178;-85
2021/05/30 11:47:08;;;;;;;3.58;2.80;;;21.50;99.30;;;;;;5057148;28;20162;-92
2021/05/30 11:49:40;;;;;;;2.50;2.30;;;21.50;98.70;;;;;;5057033;28;20678;-87
2021/05/30 11:52:07;;;;;;;4.53;2.53;;;21.30;99.10;;;;;;5074892;28;20169;-82
2021/05/30 11:54:48;;;;;;;3.63;3.33;;;21.30;99.50;;;;;;5056852;28;20299;-82
2021/05/30 11:57:19;;;;;;;5.47;2.42;;;21.20;97.40;;;;;;5056538;28;20170;-81
2021/05/30 11:59:54;;;;;;;2.80;2.60;;;21.10;98.00;;;;;;5074511;28;20202;-85
2021/05/30 12:02:43;;;;;;;2.92;2.53;;;21.20;98.60;;;;;;5055542;28;20159;-83
2021/05/30 12:05:11;;;;;;;2.50;2.30;;;21.30;97.90;;;;;;5073785;28;20171;-79
2021/05/30 12:07:37;;;;;;;5.10;2.28;;;21.30;97.40;;;;;;5073538;28;20182;-80
2021/05/30 12:10:08;;;;;;;4.90;2.10;;;21.50;97.50;;;;;;5073346;28;20198;-80
2021/05/30 12:12:46;;;;;;;6.72;2.60;;;21.80;97.50;;;;;;5073350;28;20200;-80
2021/05/30 12:15:19;;;;;;;2.40;2.20;;;21.60;96.30;;;;;;5062044;28;20170;-79
2021/05/30 12:17:51;;;;;;;3.53;2.38;;;21.40;96.30;;;;;;5055172;28;20170;-80
2021/05/30 12:20:20;;;;;;;2.78;2.10;;;21.50;96.20;;;;;;5055622;28;20453;-80
2021/05/30 12:22:46;;;;;;;2.42;2.17;;;21.70;95.90;;;;;;5073359;28;20232;-79
2021/05/30 12:25:12;;;;;;;4.78;1.92;;;21.70;94.50;;;;;;5073688;28;20167;-80
2021/05/30 12:27:38;;;;;;;4.93;1.80;;;21.70;94.90;;;;;;5058277;28;20174;-79
2021/05/30 12:30:05;;;;;;;2.22;2.03;;;21.90;94.50;;;;;;5055120;28;20218;-80
2021/05/30 12:32:30;;;;;;;4.35;2.28;;;22.00;94.40;;;;;;5060418;28;20213;-81
2021/05/30 12:34:56;;;;;;;2.45;2.22;;;21.70;95.90;;;;;;5055237;28;20216;-81
2021/05/30 12:37:41;;;;;;;3.55;2.50;;;21.70;95.50;;;;;;5077506;28;20171;-81
2021/05/30 12:40:09;;;;;;;4.43;2.40;;;21.80;95.80;;;;;;5056126;28;20194;-81
2021/05/30 12:42:36;;;;;;;2.78;2.58;;;21.80;95.20;;;;;;5054940;28;20163;-81